VOML/IXE METAR and TAF weather

Enter ICAO airport designator
Station Type Date Time Source
VOML METAR 2020/02/19 11:30 UTC NOAA

VOML 191130Z 27007KT 4000 HZ NSC 31/22 Q1009 NOSIG


Station Type Date Time Source
VOML Decoded METAR 2020/02/19 11:30 UTC NOAA

Mangalore / Bajpe, India (VOML) 12-55N 074-53E 102M
Feb 19, 2020 - 06:30 AM EST / 2020.02.19 1130 UTC
Wind: from the W (270 degrees) at 8 MPH (7 KT):0
Visibility: 2 mile(s):0
Weather: haze
Temperature: 87 F (31 C)
Heat index: 92.3 F (33.5 C):1
Dew Point: 71 F (22 C)
Relative Humidity: 58%
Pressure (altimeter): 29.80 in. Hg (1009 hPa)
ob: VOML 191130Z 27007KT 4000 HZ NSC 31/22 Q1009 NOSIG
cycle: 11

Station Type Date Time Source
VOML TAF 2020/02/19 12:00 UTC NOAA

TAF VOML 191100Z 1912/2018 27010KT 6000 FEW015
BECMG 1915/1916 VRB02KT
BECMG 1920/1921 09005KT 3000 BR FEW008
TEMPO 2000/2003 1500 BR SCT004
BECMG 2004/2005 6000 FEW015
BECMG 2008/2009 27010KT

Example: see airport list